Time;durP1;ratioP1;P1;durP2;ratioP2;P2;SDS_P1;SDS_P2;PMS_P1;PMS_P2;Temp;Humidity;BMP_temperature;BMP_pressure;BME280_temperature;BME280_humidity;BME280_pressure;Samples;Min_cycle;Max_cycle;Signal;HPM_P1;HPM_P2
2022/01/28 00:04:46;;;;;;;;;;;;;;;;;;5089028;28;20720;-90
2022/01/28 00:07:12;;;;;;;;;;;;;;;;;;5086534;28;19954;-88
2022/01/28 00:09:38;;;;;;;;;;;;;;;;;;5090177;28;19954;-88
2022/01/28 00:12:07;;;;;;;;;;;;;;;;;;5090270;28;20012;-87
2022/01/28 00:14:43;;;;;;;;;;;;;;;;;;5086511;28;19966;-85
2022/01/28 00:20:25;;;;;;;;;;;;;;;;;;5075891;28;20373;-86
2022/01/28 00:36:43;;;;;;;;;;;;;;;;;;5071832;28;19924;-88
2022/01/28 00:39:09;;;;;;;;;;;;;;;;;;5087127;28;19916;-88
2022/01/28 00:41:36;;;;;;;;;;;;;;;;;;5068018;28;20007;-87
2022/01/28 00:44:02;;;;;;;;;;;;;;;;;;5073172;28;19917;-89
2022/01/28 00:46:31;;;;;;;;;;;;;;;;;;5083384;28;19935;-86
2022/01/28 00:48:57;;;;;;;;;;;;;;;;;;5072170;28;19964;-87
2022/01/28 00:51:24;;;;;;;;;;;;;;;;;;5055779;28;20472;-90
2022/01/28 00:53:50;;;;;;;;;;;;;;;;;;5086599;28;20510;-88
2022/01/28 00:56:16;;;;;;;;;;;;;;;;;;5084437;28;19970;-85
2022/01/28 00:58:42;;;;;;;;;;;;;;;;;;5084762;28;19960;-83
2022/01/28 01:01:08;;;;;;;;;;;;;;;;;;5082752;28;19916;-83
2022/01/28 01:03:34;;;;;;;;;;;;;;;;;;5086329;28;19960;-83
2022/01/28 01:06:01;;;;;;;;;;;;;;;;;;5084867;28;20220;-83
2022/01/28 01:08:27;;;;;;;;;;;;;;;;;;5082097;28;19955;-86
2022/01/28 01:10:54;;;;;;;;;;;;;;;;;;5087056;28;19975;-87
2022/01/28 01:13:20;;;;;;;;;;;;;;;;;;5086399;28;19947;-85
2022/01/28 01:15:51;;;;;;;;;;;;;;;;;;5087496;28;19920;-86
2022/01/28 01:18:35;;;;;;;;;;;;;;;;;;5082303;28;19967;-87
2022/01/28 01:21:13;;;;;;;;;;;;;;;;;;5061677;28;20330;-88
2022/01/28 01:23:50;;;;;;;;;;;;;;;;;;5088387;28;20440;-88
2022/01/28 01:26:16;;;;;;;;;;;;;;;;;;5084870;28;19924;-88
2022/01/28 01:28:43;;;;;;;;;;;;;;;;;;5088379;28;19924;-89
2022/01/28 01:31:11;;;;;;;;;;;;;;;;;;5087089;28;20639;-88
2022/01/28 01:33:43;;;;;;;;;;;;;;;;;;5067063;28;20005;-85
2022/01/28 01:36:10;;;;;;;;;;;;;;;;;;5068730;28;19988;-85
2022/01/28 01:38:39;;;;;;;;;;;;;;;;;;5068646;28;19913;-84
2022/01/28 01:41:10;;;;;;;;;;;;;;;;;;5089578;28;19959;-86
2022/01/28 01:44:03;;;;;;;;;;;;;;;;;;5086193;28;19924;-81
2022/01/28 01:54:28;;;;;;;;;;;;;;;;;;5068837;28;19959;-89
2022/01/28 01:56:55;;;;;;;;;;;;;;;;;;5084043;28;20327;-90
2022/01/28 01:59:21;;;;;;;;;;;;;;;;;;5085653;28;19920;-86
2022/01/28 02:01:47;;;;;;;;;;;;;;;;;;5084788;28;20009;-88
2022/01/28 02:04:13;;;;;;;;;;;;;;;;;;5088275;28;19955;-89
2022/01/28 02:06:40;;;;;;;;;;;;;;;;;;5085091;28;19967;-86
2022/01/28 02:09:06;;;;;;;;;;;;;;;;;;5082769;28;19959;-83
2022/01/28 02:11:35;;;;;;;;;;;;;;;;;;5060969;28;20568;-84
2022/01/28 02:14:02;;;;;;;;;;;;;;;;;;5069902;28;19964;-82
2022/01/28 02:16:28;;;;;;;;;;;;;;;;;;5079762;28;19955;-82
2022/01/28 02:18:56;;;;;;;;;;;;;;;;;;5064457;28;19952;-84
2022/01/28 02:21:22;;;;;;;;;;;;;;;;;;5085334;28;19964;-84
2022/01/28 02:23:53;;;;;;;;;;;;;;;;;;5081219;28;19959;-86
2022/01/28 02:26:19;;;;;;;;;;;;;;;;;;5082573;28;20371;-85
2022/01/28 02:28:49;;;;;;;;;;;;;;;;;;5080596;28;19954;-82
2022/01/28 02:31:22;;;;;;;;;;;;;;;;;;5081830;28;19970;-84
2022/01/28 02:33:50;;;;;;;;;;;;;;;;;;5059825;28;21389;-83
2022/01/28 02:36:17;;;;;;;;;;;;;;;;;;5087199;28;19950;-86
2022/01/28 02:38:43;;;;;;;;;;;;;;;;;;5080432;28;19952;-86
2022/01/28 02:41:09;;;;;;;;;;;;;;;;;;5081522;28;19954;-86
2022/01/28 02:46:11;;;;;;;;;;;;;;;;;;5082792;28;20028;-86
2022/01/28 02:48:40;;;;;;;;;;;;;;;;;;5084649;28;19947;-86
2022/01/28 02:51:18;;;;;;;;;;;;;;;;;;5083660;28;19955;-84
2022/01/28 02:56:15;;;;;;;;;;;;;;;;;;5085707;28;19968;-83
2022/01/28 02:58:41;;;;;;;;;;;;;;;;;;5077981;28;19959;-85
2022/01/28 03:01:07;;;;;;;;;;;;;;;;;;5083293;28;20520;-86
2022/01/28 03:03:33;;;;;;;;;;;;;;;;;;5080592;28;19958;-86
2022/01/28 03:06:00;;;;;;;;;;;;;;;;;;5086738;28;19986;-85
2022/01/28 03:08:29;;;;;;;;;;;;;;;;;;5085007;28;19924;-86
2022/01/28 03:13:35;;;;;;;;;;;;;;;;;;5086177;28;20006;-85
2022/01/28 03:16:11;;;;;;;;;;;;;;;;;;5078954;28;19962;-86
2022/01/28 03:18:46;;;;;;;;;;;;;;;;;;5082377;28;20438;-86
2022/01/28 03:21:27;;;;;;;;;;;;;;;;;;5083359;28;19920;-85
2022/01/28 03:23:53;;;;;;;;;;;;;;;;;;5081236;28;20538;-85
2022/01/28 03:26:19;;;;;;;;;;;;;;;;;;5082347;28;19931;-85
2022/01/28 03:28:45;;;;;;;;;;;;;;;;;;5083379;28;20312;-85
2022/01/28 03:31:12;;;;;;;;;;;;;;;;;;5083596;28;19951;-84
2022/01/28 03:33:38;;;;;;;;;;;;;;;;;;5079394;28;19948;-87
2022/01/28 03:36:07;;;;;;;;;;;;;;;;;;5083826;28;19973;-85
2022/01/28 03:38:33;;;;;;;;;;;;;;;;;;5084895;28;20457;-85
2022/01/28 03:40:59;;;;;;;;;;;;;;;;;;5087974;28;19959;-85
2022/01/28 03:43:25;;;;;;;;;;;;;;;;;;5088509;28;20743;-85
2022/01/28 03:45:51;;;;;;;;;;;;;;;;;;5069819;28;19944;-85
2022/01/28 03:48:18;;;;;;;;;;;;;;;;;;5075425;28;19956;-86
2022/01/28 03:50:44;;;;;;;;;;;;;;;;;;5086210;28;19963;-85
2022/01/28 03:53:10;;;;;;;;;;;;;;;;;;5085018;28;19956;-85
2022/01/28 03:55:36;;;;;;;;;;;;;;;;;;5086211;28;20449;-86
2022/01/28 03:58:03;;;;;;;;;;;;;;;;;;5070579;28;19948;-86
2022/01/28 04:00:30;;;;;;;;;;;;;;;;;;5086643;28;19952;-84
2022/01/28 04:03:08;;;;;;;;;;;;;;;;;;5087096;28;19967;-85
2022/01/28 04:11:28;;;;;;;;;;;;;;;;;;5010445;28;19952;-84
2022/01/28 04:13:56;;;;;;;;;;;;;;;;;;5038907;28;19959;-88
2022/01/28 04:18:49;;;;;;;;;;;;;;;;;;5087941;28;19932;-85
2022/01/28 04:21:20;;;;;;;;;;;;;;;;;;5086262;28;19920;-80
2022/01/28 04:23:50;;;;;;;;;;;;;;;;;;5086524;28;20331;-79
2022/01/28 04:26:16;;;;;;;;;;;;;;;;;;5087475;28;19979;-79
2022/01/28 04:28:43;;;;;;;;;;;;;;;;;;5081300;28;19928;-80
2022/01/28 04:31:09;;;;;;;;;;;;;;;;;;5085553;28;19940;-79
2022/01/28 04:33:35;;;;;;;;;;;;;;;;;;5083250;28;19920;-80
2022/01/28 04:36:01;;;;;;;;;;;;;;;;;;5084880;28;19947;-79
2022/01/28 04:41:36;;;;;;;;;;;;;;;;;;5082246;28;21288;-79
2022/01/28 04:44:11;;;;;;;;;;;;;;;;;;5064292;28;19924;-79
2022/01/28 04:46:45;;;;;;;;;;;;;;;;;;5083631;28;20360;-79
2022/01/28 04:57:36;;;;;;;;;;;;;;;;;;5085670;28;20324;-79
2022/01/28 05:27:11;;;;;;;;;;;;;;;;;;5037624;28;21075;-78
2022/01/28 05:29:39;;;;;;;;;;;;;;;;;;5080310;28;20451;-77
2022/01/28 05:32:05;;;;;;;;;;;;;;;;;;5085062;28;20063;-79
2022/01/28 05:34:32;;;;;;;;;;;;;;;;;;5084938;28;19952;-79
2022/01/28 05:36:58;;;;;;;;;;;;;;;;;;5081718;28;19971;-81
2022/01/28 05:39:24;;;;;;;;;;;;;;;;;;5063517;28;19947;-83
2022/01/28 05:41:50;;;;;;;;;;;;;;;;;;5083608;28;19940;-83
2022/01/28 05:44:18;;;;;;;;;;;;;;;;;;5084259;28;19958;-83
2022/01/28 05:46:45;;;;;;;;;;;;;;;;;;5084501;28;19967;-83
2022/01/28 05:49:13;;;;;;;;;;;;;;;;;;5086539;28;20738;-83
2022/01/28 05:51:39;;;;;;;;;;;;;;;;;;5064985;28;19962;-84
2022/01/28 05:54:05;;;;;;;;;;;;;;;;;;5085969;28;19924;-84
2022/01/28 05:56:31;;;;;;;;;;;;;;;;;;5084504;28;19940;-85
2022/01/28 05:58:58;;;;;;;;;;;;;;;;;;5092564;28;20006;-83
2022/01/28 06:01:24;;;;;;;;;;;;;;;;;;5081009;28;19958;-82
2022/01/28 06:03:50;;;;;;;;;;;;;;;;;;5062251;28;19967;-82
2022/01/28 06:06:21;;;;;;;;;;;;;;;;;;5081392;28;19947;-83
2022/01/28 06:08:47;;;;;;;;;;;;;;;;;;5083281;28;20630;-83
2022/01/28 06:11:13;;;;;;;;;;;;;;;;;;5050362;28;20188;-83
2022/01/28 06:13:40;;;;;;;;;;;;;;;;;;5082703;28;19920;-82
2022/01/28 06:16:06;;;;;;;;;;;;;;;;;;5081655;28;19952;-82
2022/01/28 06:18:32;;;;;;;;;;;;;;;;;;5088723;28;19963;-81
2022/01/28 06:20:58;;;;;;;;;;;;;;;;;;5081937;28;20144;-82
2022/01/28 06:23:24;;;;;;;;;;;;;;;;;;5080746;28;19978;-82
2022/01/28 06:25:51;;;;;;;;;;;;;;;;;;5078054;28;19978;-82
2022/01/28 06:28:17;;;;;;;;;;;;;;;;;;5085917;28;19959;-81
2022/01/28 06:30:43;;;;;;;;;;;;;;;;;;5063500;28;20585;-82
2022/01/28 06:33:09;;;;;;;;;;;;;;;;;;5081171;28;19951;-81
2022/01/28 06:35:35;;;;;;;;;;;;;;;;;;5084583;28;19955;-81
2022/01/28 06:38:02;;;;;;;;;;;;;;;;;;5086329;28;20363;-81
2022/01/28 06:40:28;;;;;;;;;;;;;;;;;;5081139;28;20324;-81
2022/01/28 06:42:54;;;;;;;;;;;;;;;;;;5089636;28;19959;-81
2022/01/28 06:45:20;;;;;;;;;;;;;;;;;;5084150;28;20368;-81
2022/01/28 06:47:46;;;;;;;;;;;;;;;;;;5081000;28;19971;-81
2022/01/28 06:50:13;;;;;;;;;;;;;;;;;;5080566;28;19952;-81
2022/01/28 06:52:40;;;;;;;;;;;;;;;;;;5083249;28;19955;-82
2022/01/28 06:55:07;;;;;;;;;;;;;;;;;;5083741;28;19948;-80
2022/01/28 06:57:33;;;;;;;;;;;;;;;;;;5083533;28;19956;-80
2022/01/28 07:00:00;;;;;;;;;;;;;;;;;;5084157;28;19952;-81
2022/01/28 07:02:26;;;;;;;;;;;;;;;;;;5083850;28;20771;-81
2022/01/28 07:04:52;;;;;;;;;;;;;;;;;;5084873;28;19953;-80
2022/01/28 07:07:20;;;;;;;;;;;;;;;;;;5080948;28;20348;-82
2022/01/28 07:09:48;;;;;;;;;;;;;;;;;;5080380;28;19952;-81
2022/01/28 07:12:14;;;;;;;;;;;;;;;;;;5084129;28;19955;-81
2022/01/28 07:14:40;;;;;;;;;;;;;;;;;;5085746;28;20361;-81
2022/01/28 07:17:06;;;;;;;;;;;;;;;;;;5068387;28;19917;-82
2022/01/28 07:19:35;;;;;;;;;;;;;;;;;;5084923;28;19924;-81
2022/01/28 07:22:01;;;;;;;;;;;;;;;;;;5088619;28;19996;-81
2022/01/28 07:24:28;;;;;;;;;;;;;;;;;;5086143;28;19963;-81
2022/01/28 07:26:54;;;;;;;;;;;;;;;;;;5087572;28;19970;-81
2022/01/28 07:29:22;;;;;;;;;;;;;;;;;;5086756;28;19946;-82
2022/01/28 07:31:48;;;;;;;;;;;;;;;;;;5066881;28;19981;-83
2022/01/28 07:34:15;;;;;;;;;;;;;;;;;;5088083;28;20353;-81
2022/01/28 07:36:41;;;;;;;;;;;;;;;;;;5083616;28;19959;-82
2022/01/28 07:39:07;;;;;;;;;;;;;;;;;;5088968;28;20057;-82
2022/01/28 07:41:33;;;;;;;;;;;;;;;;;;5086599;28;20379;-82
2022/01/28 07:44:00;;;;;;;;;;;;;;;;;;5084282;28;19962;-81
2022/01/28 07:46:26;;;;;;;;;;;;;;;;;;5085842;28;19971;-81
2022/01/28 07:48:52;;;;;;;;;;;;;;;;;;5087066;28;20379;-81
2022/01/28 07:51:18;;;;;;;;;;;;;;;;;;5067604;28;19959;-81
2022/01/28 07:53:44;;;;;;;;;;;;;;;;;;5087352;28;19958;-81
2022/01/28 07:56:12;;;;;;;;;;;;;;;;;;5068176;28;19923;-81
2022/01/28 07:58:38;;;;;;;;;;;;;;;;;;5083265;28;19976;-81
2022/01/28 08:01:04;;;;;;;;;;;;;;;;;;5086575;28;20644;-82
2022/01/28 08:03:30;;;;;;;;;;;;;;;;;;5084836;28;19947;-82
2022/01/28 08:05:57;;;;;;;;;;;;;;;;;;5064894;28;19961;-83
2022/01/28 08:08:23;;;;;;;;;;;;;;;;;;5066215;28;19967;-83
2022/01/28 08:10:49;;;;;;;;;;;;;;;;;;5065300;28;20767;-82
2022/01/28 08:13:15;;;;;;;;;;;;;;;;;;5087766;28;20295;-83
2022/01/28 08:15:42;;;;;;;;;;;;;;;;;;5057613;28;19920;-80
2022/01/28 08:18:08;;;;;;;;;;;;;;;;;;5087636;28;20017;-82
2022/01/28 08:20:34;;;;;;;;;;;;;;;;;;5086391;28;20375;-81
2022/01/28 08:23:00;;;;;;;;;;;;;;;;;;5065295;28;19955;-81
2022/01/28 08:25:26;;;;;;;;;;;;;;;;;;5082550;28;19992;-81
2022/01/28 08:27:53;;;;;;;;;;;;;;;;;;5063496;28;19963;-81
2022/01/28 08:30:19;;;;;;;;;;;;;;;;;;5083092;28;19920;-81
2022/01/28 08:32:45;;;;;;;;;;;;;;;;;;5084974;28;19920;-80
2022/01/28 08:35:11;;;;;;;;;;;;;;;;;;5086689;28;19962;-80
2022/01/28 08:37:38;;;;;;;;;;;;;;;;;;5064023;28;19952;-81
2022/01/28 08:40:04;;;;;;;;;;;;;;;;;;5087330;28;20369;-81
2022/01/28 08:42:30;;;;;;;;;;;;;;;;;;5087551;28;19959;-81
2022/01/28 08:44:56;;;;;;;;;;;;;;;;;;5067150;28;20049;-80
2022/01/28 08:47:22;;;;;;;;;;;;;;;;;;5061384;28;19974;-80
2022/01/28 08:49:49;;;;;;;;;;;;;;;;;;5074526;28;19959;-81
2022/01/28 08:52:15;;;;;;;;;;;;;;;;;;5064859;28;19924;-81
2022/01/28 08:54:41;;;;;;;;;;;;;;;;;;5085633;28;19924;-81
2022/01/28 08:57:07;;;;;;;;;;;;;;;;;;5086600;28;20706;-81
2022/01/28 08:59:33;;;;;;;;;;;;;;;;;;5061451;28;19918;-80
2022/01/28 09:02:00;;;;;;;;;;;;;;;;;;5085939;28;20351;-80
2022/01/28 09:04:26;;;;;;;;;;;;;;;;;;5064047;28;19923;-82
2022/01/28 09:06:52;;;;;;;;;;;;;;;;;;5068404;28;19968;-82
2022/01/28 09:09:19;;;;;;;;;;;;;;;;;;5062026;28;19916;-82
2022/01/28 09:14:12;;;;;;;;;;;;;;;;;;5079203;28;19951;-81
2022/01/28 09:16:38;;;;;;;;;;;;;;;;;;5081820;28;19959;-81
2022/01/28 09:19:04;;;;;;;;;;;;;;;;;;5068287;28;20415;-81
2022/01/28 09:21:30;;;;;;;;;;;;;;;;;;5083236;28;19956;-80
2022/01/28 09:23:57;;;;;;;;;;;;;;;;;;5084502;28;19947;-80
2022/01/28 09:26:23;;;;;;;;;;;;;;;;;;5085614;28;20638;-80
2022/01/28 09:28:49;;;;;;;;;;;;;;;;;;5084996;28;20185;-80
2022/01/28 09:31:15;;;;;;;;;;;;;;;;;;5083959;28;19966;-83
2022/01/28 09:33:41;;;;;;;;;;;;;;;;;;5065756;28;19955;-80
2022/01/28 09:36:08;;;;;;;;;;;;;;;;;;5082393;28;19962;-81
2022/01/28 09:38:34;;;;;;;;;;;;;;;;;;5064660;28;19994;-80
2022/01/28 09:41:00;;;;;;;;;;;;;;;;;;5082893;28;20392;-82
2022/01/28 09:43:26;;;;;;;;;;;;;;;;;;5082688;28;19947;-81
2022/01/28 09:45:52;;;;;;;;;;;;;;;;;;5082123;28;19958;-81
2022/01/28 09:48:19;;;;;;;;;;;;;;;;;;5066528;28;20020;-81
2022/01/28 09:50:46;;;;;;;;;;;;;;;;;;5084823;28;19970;-80
2022/01/28 09:53:12;;;;;;;;;;;;;;;;;;5083352;28;19955;-81
2022/01/28 09:55:38;;;;;;;;;;;;;;;;;;5082803;28;20352;-81
2022/01/28 09:58:05;;;;;;;;;;;;;;;;;;5086283;28;20397;-81
2022/01/28 10:00:31;;;;;;;;;;;;;;;;;;5081535;28;19962;-80
2022/01/28 10:02:59;;;;;;;;;;;;;;;;;;5084178;28;19966;-82
2022/01/28 10:05:25;;;;;;;;;;;;;;;;;;5082498;28;19970;-80
2022/01/28 10:07:51;;;;;;;;;;;;;;;;;;5084553;28;19963;-82
2022/01/28 10:10:17;;;;;;;;;;;;;;;;;;5085019;28;20016;-82
2022/01/28 10:12:50;;;;;;;;;;;;;;;;;;5082936;28;19951;-82
2022/01/28 10:15:18;;;;;;;;;;;;;;;;;;5080538;28;19951;-82
2022/01/28 10:17:45;;;;;;;;;;;;;;;;;;5079881;28;19943;-83
2022/01/28 10:20:11;;;;;;;;;;;;;;;;;;5061798;28;20437;-83
2022/01/28 10:22:37;;;;;;;;;;;;;;;;;;5081403;28;19920;-80
2022/01/28 10:25:03;;;;;;;;;;;;;;;;;;5064730;28;19952;-83
2022/01/28 10:27:29;;;;;;;;;;;;;;;;;;5085172;28;19960;-83
2022/01/28 10:29:56;;;;;;;;;;;;;;;;;;5085531;28;20362;-83
2022/01/28 10:32:24;;;;;;;;;;;;;;;;;;5084726;28;19964;-84
2022/01/28 10:34:50;;;;;;;;;;;;;;;;;;5083905;28;20593;-83
2022/01/28 10:37:16;;;;;;;;;;;;;;;;;;5085482;28;20344;-83
2022/01/28 10:39:43;;;;;;;;;;;;;;;;;;5064444;28;19974;-82
2022/01/28 10:42:09;;;;;;;;;;;;;;;;;;5080841;28;19959;-82
2022/01/28 10:44:35;;;;;;;;;;;;;;;;;;5061578;28;20029;-82
2022/01/28 10:47:03;;;;;;;;;;;;;;;;;;5085859;28;19955;-82
2022/01/28 10:49:29;;;;;;;;;;;;;;;;;;5074692;28;19967;-82
2022/01/28 10:51:55;;;;;;;;;;;;;;;;;;5081461;28;19963;-83
2022/01/28 10:54:21;;;;;;;;;;;;;;;;;;5084568;28;20555;-83
2022/01/28 10:56:50;;;;;;;;;;;;;;;;;;5070852;28;19968;-82
2022/01/28 10:59:17;;;;;;;;;;;;;;;;;;5090575;28;19955;-83
2022/01/28 11:01:43;;;;;;;;;;;;;;;;;;5086315;28;20005;-82
2022/01/28 11:04:09;;;;;;;;;;;;;;;;;;5082610;28;19986;-82
2022/01/28 11:06:35;;;;;;;;;;;;;;;;;;5084741;28;20500;-82
2022/01/28 11:09:02;;;;;;;;;;;;;;;;;;5089249;28;19962;-83
2022/01/28 11:11:28;;;;;;;;;;;;;;;;;;5088852;28;19967;-82
2022/01/28 11:13:54;;;;;;;;;;;;;;;;;;5069749;28;19959;-83
2022/01/28 11:16:20;;;;;;;;;;;;;;;;;;5089505;28;20099;-82
2022/01/28 11:18:46;;;;;;;;;;;;;;;;;;5087170;28;19971;-83
2022/01/28 11:21:16;;;;;;;;;;;;;;;;;;5090101;28;19912;-82
2022/01/28 11:23:42;;;;;;;;;;;;;;;;;;5088234;28;19947;-83
2022/01/28 11:26:08;;;;;;;;;;;;;;;;;;5088623;28;19959;-83
2022/01/28 11:28:35;;;;;;;;;;;;;;;;;;5081419;28;19964;-83
2022/01/28 11:31:01;;;;;;;;;;;;;;;;;;5084174;28;19959;-83
2022/01/28 11:33:27;;;;;;;;;;;;;;;;;;5088350;28;20375;-82
2022/01/28 11:35:53;;;;;;;;;;;;;;;;;;5089532;28;19921;-83
2022/01/28 11:38:19;;;;;;;;;;;;;;;;;;5087599;28;20392;-83
2022/01/28 11:40:45;;;;;;;;;;;;;;;;;;5067048;28;19963;-82
2022/01/28 11:43:12;;;;;;;;;;;;;;;;;;5088409;28;19955;-83
2022/01/28 11:45:38;;;;;;;;;;;;;;;;;;5084940;28;19962;-82
2022/01/28 11:48:04;;;;;;;;;;;;;;;;;;5084911;28;19966;-83
2022/01/28 11:50:30;;;;;;;;;;;;;;;;;;5080820;28;20337;-82
2022/01/28 11:52:58;;;;;;;;;;;;;;;;;;5087656;28;19951;-82
2022/01/28 11:55:24;;;;;;;;;;;;;;;;;;5080515;28;20438;-82
2022/01/28 11:57:51;;;;;;;;;;;;;;;;;;5086940;28;20362;-82
2022/01/28 12:00:17;;;;;;;;;;;;;;;;;;5086989;28;20052;-83
2022/01/28 12:02:43;;;;;;;;;;;;;;;;;;5045570;28;19959;-82
2022/01/28 12:05:09;;;;;;;;;;;;;;;;;;5085302;28;20680;-81
2022/01/28 12:07:37;;;;;;;;;;;;;;;;;;5086633;28;19951;-82
2022/01/28 12:10:03;;;;;;;;;;;;;;;;;;5083229;28;20471;-82
2022/01/28 12:12:29;;;;;;;;;;;;;;;;;;5041407;28;20399;-82
2022/01/28 12:15:19;;;;;;;;;;;;;;;;;;5087267;28;19970;-82
2022/01/28 12:17:42;;;;;;;;;;;;;;;;;;5085468;28;19974;-82
2022/01/28 12:20:08;;;;;;;;;;;;;;;;;;5081715;28;19954;-84
2022/01/28 12:22:34;;;;;;;;;;;;;;;;;;5086153;28;20353;-83
2022/01/28 12:25:00;;;;;;;;;;;;;;;;;;5083948;28;19955;-82
2022/01/28 12:27:26;;;;;;;;;;;;;;;;;;5086703;28;19959;-80
2022/01/28 12:29:57;;;;;;;;;;;;;;;;;;5067840;28;19921;-82
2022/01/28 12:32:23;;;;;;;;;;;;;;;;;;5097971;28;19947;-82
2022/01/28 12:34:50;;;;;;;;;;;;;;;;;;5086466;28;20334;-83
2022/01/28 12:37:21;;;;;;;;;;;;;;;;;;5085781;28;19959;-82
2022/01/28 12:39:54;;;;;;;;;;;;;;;;;;5082519;28;19951;-82
2022/01/28 12:44:47;;;;;;;;;;;;;;;;;;5083950;28;19964;-83
2022/01/28 12:47:13;;;;;;;;;;;;;;;;;;5082189;28;20483;-83
2022/01/28 12:49:39;;;;;;;;;;;;;;;;;;5084215;28;20016;-83
2022/01/28 12:52:05;;;;;;;;;;;;;;;;;;5086701;28;20324;-82
2022/01/28 12:54:32;;;;;;;;;;;;;;;;;;5064771;28;20013;-82
2022/01/28 12:56:58;;;;;;;;;;;;;;;;;;5086280;28;19947;-84
2022/01/28 12:59:24;;;;;;;;;;;;;;;;;;5068700;28;19996;-83
2022/01/28 13:01:50;;;;;;;;;;;;;;;;;;5083284;28;19920;-83
2022/01/28 13:04:17;;;;;;;;;;;;;;;;;;5066775;28;19967;-83
2022/01/28 13:07:01;;;;;;;;;;;;;;;;;;5080948;28;20395;-83
2022/01/28 13:09:27;;;;;;;;;;;;;;;;;;5083923;28;19971;-81
2022/01/28 13:11:53;;;;;;;;;;;;;;;;;;5087910;28;19947;-84
2022/01/28 13:14:19;;;;;;;;;;;;;;;;;;5078957;28;19959;-84
2022/01/28 13:16:46;;;;;;;;;;;;;;;;;;5080371;28;20015;-84
2022/01/28 13:19:12;;;;;;;;;;;;;;;;;;5079753;28;20267;-84
2022/01/28 13:21:38;;;;;;;;;;;;;;;;;;5080451;28;19916;-83
2022/01/28 13:24:04;;;;;;;;;;;;;;;;;;5085185;28;20435;-83
2022/01/28 13:26:31;;;;;;;;;;;;;;;;;;5084194;28;19928;-81
2022/01/28 13:28:59;;;;;;;;;;;;;;;;;;5081551;28;20283;-82
2022/01/28 13:31:25;;;;;;;;;;;;;;;;;;5083136;28;19951;-80
2022/01/28 13:33:51;;;;;;;;;;;;;;;;;;5048513;28;19920;-83
2022/01/28 13:36:18;;;;;;;;;;;;;;;;;;5085940;28;19962;-83
2022/01/28 13:38:44;;;;;;;;;;;;;;;;;;5083927;28;19961;-82
2022/01/28 13:41:10;;;;;;;;;;;;;;;;;;5067118;28;19936;-82
2022/01/28 13:43:37;;;;;;;;;;;;;;;;;;5083731;28;19951;-83
2022/01/28 13:46:05;;;;;;;;;;;;;;;;;;5084537;28;20409;-80
2022/01/28 13:48:31;;;;;;;;;;;;;;;;;;5083308;28;20406;-80
2022/01/28 13:50:57;;;;;;;;;;;;;;;;;;5084162;28;19998;-80
2022/01/28 13:55:53;;;;;;;;;;;;;;;;;;5082959;28;19965;-81
2022/01/28 13:58:22;;;;;;;;;;;;;;;;;;5083786;28;19928;-81
2022/01/28 14:00:48;;;;;;;;;;;;;;;;;;5083230;28;20401;-82
2022/01/28 14:03:14;;;;;;;;;;;;;;;;;;5083727;28;19995;-80
2022/01/28 14:05:41;;;;;;;;;;;;;;;;;;5083938;28;20357;-81
2022/01/28 14:08:07;;;;;;;;;;;;;;;;;;5085846;28;19966;-81
2022/01/28 14:10:33;;;;;;;;;;;;;;;;;;5088291;28;19915;-83
2022/01/28 14:13:02;;;;;;;;;;;;;;;;;;5084671;28;20037;-80
2022/01/28 14:15:34;;;;;;;;;;;;;;;;;;5076618;28;19969;-78
2022/01/28 14:18:02;;;;;;;;;;;;;;;;;;5082024;28;20036;-78
2022/01/28 14:20:28;;;;;;;;;;;;;;;;;;5062300;28;19955;-78
2022/01/28 14:22:54;;;;;;;;;;;;;;;;;;5085105;28;19924;-79
2022/01/28 14:25:21;;;;;;;;;;;;;;;;;;5062333;28;20211;-79
2022/01/28 14:30:37;;;;;;;;;;;;;;;;;;5081786;28;20383;-79
2022/01/28 14:33:03;;;;;;;;;;;;;;;;;;5081730;28;19955;-79
2022/01/28 14:35:30;;;;;;;;;;;;;;;;;;5059693;28;19924;-79
2022/01/28 14:37:56;;;;;;;;;;;;;;;;;;5062276;28;19951;-82
2022/01/28 14:40:22;;;;;;;;;;;;;;;;;;5082203;28;19924;-79
2022/01/28 14:42:51;;;;;;;;;;;;;;;;;;5081275;28;20020;-79
2022/01/28 14:45:17;;;;;;;;;;;;;;;;;;5083246;28;19971;-78
2022/01/28 14:47:44;;;;;;;;;;;;;;;;;;5080699;28;20559;-80
2022/01/28 14:50:11;;;;;;;;;;;;;;;;;;5082612;28;19943;-80
2022/01/28 14:52:37;;;;;;;;;;;;;;;;;;5082060;28;19954;-81
2022/01/28 14:55:03;;;;;;;;;;;;;;;;;;5083551;28;19968;-81
2022/01/28 14:57:30;;;;;;;;;;;;;;;;;;5073403;28;19955;-83
2022/01/28 14:59:56;;;;;;;;;;;;;;;;;;5064351;28;20343;-85
2022/01/28 15:02:24;;;;;;;;;;;;;;;;;;5082144;28;20953;-88
2022/01/28 15:04:50;;;;;;;;;;;;;;;;;;5082266;28;19955;-85
2022/01/28 15:07:17;;;;;;;;;;;;;;;;;;5080987;28;19963;-85
2022/01/28 15:09:44;;;;;;;;;;;;;;;;;;5081436;28;19967;-85
2022/01/28 15:12:10;;;;;;;;;;;;;;;;;;5081772;28;19952;-85
2022/01/28 15:14:36;;;;;;;;;;;;;;;;;;5081772;28;19951;-85
2022/01/28 15:17:03;;;;;;;;;;;;;;;;;;5082684;28;20454;-85
2022/01/28 15:19:29;;;;;;;;;;;;;;;;;;5079146;28;20443;-85
2022/01/28 15:21:55;;;;;;;;;;;;;;;;;;5080740;28;19952;-84
2022/01/28 15:24:21;;;;;;;;;;;;;;;;;;5083608;28;19948;-85
2022/01/28 15:26:48;;;;;;;;;;;;;;;;;;5083845;28;20051;-85
2022/01/28 15:37:30;;;;;;;;;;;;;;;;;;5087307;28;19978;-87
2022/01/28 15:39:56;;;;;;;;;;;;;;;;;;5065359;28;19951;-86
2022/01/28 15:42:22;;;;;;;;;;;;;;;;;;5062907;28;19912;-87
2022/01/28 15:44:49;;;;;;;;;;;;;;;;;;5066045;28;19916;-87
2022/01/28 15:47:15;;;;;;;;;;;;;;;;;;5087527;28;19952;-88
2022/01/28 15:49:41;;;;;;;;;;;;;;;;;;5085681;28;19975;-85
2022/01/28 15:52:08;;;;;;;;;;;;;;;;;;5053902;28;20356;-86
2022/01/28 15:54:34;;;;;;;;;;;;;;;;;;5052061;28;19976;-85
2022/01/28 15:57:00;;;;;;;;;;;;;;;;;;5084699;28;19952;-85
2022/01/28 15:59:26;;;;;;;;;;;;;;;;;;5084427;28;19959;-87
2022/01/28 16:01:52;;;;;;;;;;;;;;;;;;5083551;28;19916;-87
2022/01/28 16:04:19;;;;;;;;;;;;;;;;;;5084922;28;19935;-88
2022/01/28 16:06:48;;;;;;;;;;;;;;;;;;5083298;28;19956;-87
2022/01/28 16:09:14;;;;;;;;;;;;;;;;;;5066532;28;19979;-86
2022/01/28 16:11:51;;;;;;;;;;;;;;;;;;5081693;28;19928;-86
2022/01/28 16:14:35;;;;;;;;;;;;;;;;;;5043442;28;19955;-87
2022/01/28 16:19:47;;;;;;;;;;;;;;;;;;5083575;28;19959;-88
2022/01/28 16:22:14;;;;;;;;;;;;;;;;;;5067702;28;19948;-86
2022/01/28 16:24:40;;;;;;;;;;;;;;;;;;5065478;28;20723;-89
2022/01/28 16:27:06;;;;;;;;;;;;;;;;;;5089702;28;19964;-88
2022/01/28 16:29:34;;;;;;;;;;;;;;;;;;5083921;28;19964;-87
2022/01/28 16:32:01;;;;;;;;;;;;;;;;;;5084939;28;20020;-84
2022/01/28 16:34:27;;;;;;;;;;;;;;;;;;5087212;28;19920;-89
2022/01/28 16:36:53;;;;;;;;;;;;;;;;;;5085908;28;20390;-89
2022/01/28 16:39:19;;;;;;;;;;;;;;;;;;5085637;28;19958;-83
2022/01/28 16:41:46;;;;;;;;;;;;;;;;;;5055951;28;20356;-82
2022/01/28 16:44:14;;;;;;;;;;;;;;;;;;5066697;28;20009;-83
2022/01/28 16:46:40;;;;;;;;;;;;;;;;;;5082556;28;19920;-83
2022/01/28 16:49:06;;;;;;;;;;;;;;;;;;5083583;28;19966;-84
2022/01/28 16:51:33;;;;;;;;;;;;;;;;;;5077321;28;19959;-83
2022/01/28 16:53:59;;;;;;;;;;;;;;;;;;5078307;28;20476;-83
2022/01/28 16:56:25;;;;;;;;;;;;;;;;;;5082290;28;20375;-85
2022/01/28 16:58:52;;;;;;;;;;;;;;;;;;5063358;28;19966;-83
2022/01/28 17:01:18;;;;;;;;;;;;;;;;;;5083651;28;19956;-83
2022/01/28 17:03:44;;;;;;;;;;;;;;;;;;5080409;28;19928;-84
2022/01/28 17:06:11;;;;;;;;;;;;;;;;;;5084303;28;20010;-84
2022/01/28 17:08:37;;;;;;;;;;;;;;;;;;5082233;28;19959;-85
2022/01/28 17:11:25;;;;;;;;;;;;;;;;;;5079806;28;19971;-86
2022/01/28 17:13:51;;;;;;;;;;;;;;;;;;5078979;28;20380;-84
2022/01/28 17:16:18;;;;;;;;;;;;;;;;;;5061039;28;19955;-84
2022/01/28 17:18:44;;;;;;;;;;;;;;;;;;5079263;28;19989;-84
2022/01/28 17:21:10;;;;;;;;;;;;;;;;;;5082408;28;19997;-85
2022/01/28 17:23:37;;;;;;;;;;;;;;;;;;5082520;28;19959;-84
2022/01/28 17:26:03;;;;;;;;;;;;;;;;;;5065230;28;19985;-86
2022/01/28 17:28:29;;;;;;;;;;;;;;;;;;5063273;28;20027;-85
2022/01/28 17:30:56;;;;;;;;;;;;;;;;;;5080292;28;20001;-85
2022/01/28 17:33:22;;;;;;;;;;;;;;;;;;5080393;28;19959;-85
2022/01/28 17:35:48;;;;;;;;;;;;;;;;;;5080606;28;20068;-84
2022/01/28 17:38:20;;;;;;;;;;;;;;;;;;5060130;28;19947;-84
2022/01/28 17:40:46;;;;;;;;;;;;;;;;;;5061809;28;19947;-84
2022/01/28 17:43:12;;;;;;;;;;;;;;;;;;5059997;28;20536;-83
2022/01/28 17:45:38;;;;;;;;;;;;;;;;;;5079357;28;20005;-86
2022/01/28 17:48:04;;;;;;;;;;;;;;;;;;5080200;28;19959;-83
2022/01/28 17:50:31;;;;;;;;;;;;;;;;;;5076333;28;19963;-82
2022/01/28 17:52:57;;;;;;;;;;;;;;;;;;5080298;28;19952;-82
2022/01/28 17:55:29;;;;;;;;;;;;;;;;;;5062164;28;19967;-83
2022/01/28 17:57:55;;;;;;;;;;;;;;;;;;5058546;28;19971;-85
2022/01/28 18:00:22;;;;;;;;;;;;;;;;;;5081063;28;19923;-84
2022/01/28 18:02:48;;;;;;;;;;;;;;;;;;5079348;28;19964;-84
2022/01/28 18:05:16;;;;;;;;;;;;;;;;;;5080029;28;19967;-83
2022/01/28 18:07:43;;;;;;;;;;;;;;;;;;5056789;28;20345;-75
2022/01/28 18:10:10;;;;;;;;;;;;;;;;;;5042168;28;19971;-74
2022/01/28 18:12:36;;;;;;;;;;;;;;;;;;5063732;28;19955;-75
2022/01/28 18:15:02;;;;;;;;;;;;;;;;;;5080070;28;19963;-76
2022/01/28 18:17:29;;;;;;;;;;;;;;;;;;5076922;28;19967;-75
2022/01/28 18:19:55;;;;;;;;;;;;;;;;;;5060908;28;19987;-75
2022/01/28 18:22:21;;;;;;;;;;;;;;;;;;5076586;28;19963;-75
2022/01/28 18:24:47;;;;;;;;;;;;;;;;;;5077153;28;19994;-75
2022/01/28 18:27:14;;;;;;;;;;;;;;;;;;5080398;28;19948;-75
2022/01/28 18:29:40;;;;;;;;;;;;;;;;;;5077243;28;19964;-76